sensor_id;sensor_type;location;lat;lon;timestamp;P1;durP1;ratioP1;P2;durP2;ratioP2
35048;SDS011;21236;48.740;-3.446;2022-12-07T00:00:01;91.45;;;45.08;;
35048;SDS011;21236;48.740;-3.446;2022-12-07T00:02:30;79.80;;;41.58;;
35048;SDS011;21236;48.740;-3.446;2022-12-07T00:04:56;77.85;;;42.30;;
35048;SDS011;21236;48.740;-3.446;2022-12-07T00:07:22;76.03;;;40.10;;
35048;SDS011;21236;48.740;-3.446;2022-12-07T00:09:48;89.03;;;43.67;;
35048;SDS011;21236;48.740;-3.446;2022-12-07T00:12:15;91.97;;;48.58;;
35048;SDS011;21236;48.740;-3.446;2022-12-07T00:14:41;86.57;;;44.67;;
35048;SDS011;21236;48.740;-3.446;2022-12-07T00:17:07;103.00;;;50.60;;
35048;SDS011;21236;48.740;-3.446;2022-12-07T00:19:33;138.35;;;64.03;;
35048;SDS011;21236;48.740;-3.446;2022-12-07T00:21:59;113.75;;;55.50;;
35048;SDS011;21236;48.740;-3.446;2022-12-07T00:24:25;90.70;;;44.13;;
35048;SDS011;21236;48.740;-3.446;2022-12-07T00:26:51;89.45;;;44.75;;
35048;SDS011;21236;48.740;-3.446;2022-12-07T00:29:18;107.95;;;49.13;;
35048;SDS011;21236;48.740;-3.446;2022-12-07T00:31:45;98.35;;;46.03;;
35048;SDS011;21236;48.740;-3.446;2022-12-07T00:34:12;77.20;;;38.97;;
35048;SDS011;21236;48.740;-3.446;2022-12-07T00:36:39;84.45;;;41.75;;
35048;SDS011;21236;48.740;-3.446;2022-12-07T00:39:05;88.30;;;42.70;;
35048;SDS011;21236;48.740;-3.446;2022-12-07T00:41:31;75.05;;;34.97;;
35048;SDS011;21236;48.740;-3.446;2022-12-07T00:43:57;72.13;;;37.92;;
35048;SDS011;21236;48.740;-3.446;2022-12-07T00:46:23;110.10;;;51.35;;
35048;SDS011;21236;48.740;-3.446;2022-12-07T00:48:50;106.20;;;51.30;;
35048;SDS011;21236;48.740;-3.446;2022-12-07T00:51:18;111.38;;;52.13;;
35048;SDS011;21236;48.740;-3.446;2022-12-07T00:53:44;109.03;;;52.45;;
35048;SDS011;21236;48.740;-3.446;2022-12-07T00:56:11;65.47;;;34.03;;
35048;SDS011;21236;48.740;-3.446;2022-12-07T00:58:38;51.63;;;26.58;;
35048;SDS011;21236;48.740;-3.446;2022-12-07T01:01:05;61.00;;;31.33;;
35048;SDS011;21236;48.740;-3.446;2022-12-07T01:03:31;85.38;;;40.15;;
35048;SDS011;21236;48.740;-3.446;2022-12-07T01:05:58;65.22;;;32.17;;
35048;SDS011;21236;48.740;-3.446;2022-12-07T01:08:25;51.90;;;26.55;;
35048;SDS011;21236;48.740;-3.446;2022-12-07T01:10:58;64.50;;;32.47;;
35048;SDS011;21236;48.740;-3.446;2022-12-07T01:13:25;86.00;;;41.35;;
35048;SDS011;21236;48.740;-3.446;2022-12-07T01:15:51;100.70;;;45.92;;
35048;SDS011;21236;48.740;-3.446;2022-12-07T01:18:17;98.15;;;47.78;;
35048;SDS011;21236;48.740;-3.446;2022-12-07T01:20:43;75.85;;;42.88;;
35048;SDS011;21236;48.740;-3.446;2022-12-07T01:23:09;70.20;;;38.80;;
35048;SDS011;21236;48.740;-3.446;2022-12-07T01:25:35;74.63;;;37.72;;
35048;SDS011;21236;48.740;-3.446;2022-12-07T01:28:01;67.28;;;35.22;;
35048;SDS011;21236;48.740;-3.446;2022-12-07T01:30:27;66.82;;;36.60;;
35048;SDS011;21236;48.740;-3.446;2022-12-07T01:32:54;57.15;;;33.88;;
35048;SDS011;21236;48.740;-3.446;2022-12-07T01:35:20;69.25;;;34.70;;
35048;SDS011;21236;48.740;-3.446;2022-12-07T01:37:46;114.10;;;50.28;;
35048;SDS011;21236;48.740;-3.446;2022-12-07T01:40:12;114.78;;;48.83;;
35048;SDS011;21236;48.740;-3.446;2022-12-07T01:42:38;91.68;;;44.55;;
35048;SDS011;21236;48.740;-3.446;2022-12-07T01:47:44;77.82;;;38.50;;
35048;SDS011;21236;48.740;-3.446;2022-12-07T01:50:11;75.45;;;37.90;;
35048;SDS011;21236;48.740;-3.446;2022-12-07T01:52:37;76.45;;;36.00;;
35048;SDS011;21236;48.740;-3.446;2022-12-07T01:55:04;68.45;;;35.60;;
35048;SDS011;21236;48.740;-3.446;2022-12-07T01:57:32;75.20;;;36.75;;
35048;SDS011;21236;48.740;-3.446;2022-12-07T01:59:58;69.95;;;35.10;;
35048;SDS011;21236;48.740;-3.446;2022-12-07T02:02:39;62.70;;;32.40;;
35048;SDS011;21236;48.740;-3.446;2022-12-07T02:05:07;59.83;;;31.83;;
35048;SDS011;21236;48.740;-3.446;2022-12-07T02:07:34;55.75;;;30.60;;
35048;SDS011;21236;48.740;-3.446;2022-12-07T02:13:04;61.78;;;31.90;;
35048;SDS011;21236;48.740;-3.446;2022-12-07T02:15:57;53.38;;;28.80;;
35048;SDS011;21236;48.740;-3.446;2022-12-07T02:21:23;61.13;;;29.00;;
35048;SDS011;21236;48.740;-3.446;2022-12-07T02:31:22;46.97;;;26.67;;
35048;SDS011;21236;48.740;-3.446;2022-12-07T02:33:54;49.42;;;26.27;;
35048;SDS011;21236;48.740;-3.446;2022-12-07T02:36:27;47.78;;;24.42;;
35048;SDS011;21236;48.740;-3.446;2022-12-07T02:38:55;40.13;;;23.42;;
35048;SDS011;21236;48.740;-3.446;2022-12-07T02:41:25;44.60;;;23.77;;
35048;SDS011;21236;48.740;-3.446;2022-12-07T02:43:54;47.17;;;24.67;;
35048;SDS011;21236;48.740;-3.446;2022-12-07T02:46:22;48.17;;;23.60;;
35048;SDS011;21236;48.740;-3.446;2022-12-07T02:48:49;48.83;;;24.52;;
35048;SDS011;21236;48.740;-3.446;2022-12-07T02:51:17;46.40;;;23.27;;
35048;SDS011;21236;48.740;-3.446;2022-12-07T02:53:43;38.50;;;22.13;;
35048;SDS011;21236;48.740;-3.446;2022-12-07T03:06:42;45.13;;;21.65;;
35048;SDS011;21236;48.740;-3.446;2022-12-07T03:09:20;42.28;;;20.40;;
35048;SDS011;21236;48.740;-3.446;2022-12-07T03:11:52;41.60;;;20.83;;
35048;SDS011;21236;48.740;-3.446;2022-12-07T03:16:52;42.30;;;20.77;;
35048;SDS011;21236;48.740;-3.446;2022-12-07T03:19:19;45.00;;;24.23;;
35048;SDS011;21236;48.740;-3.446;2022-12-07T03:21:47;46.78;;;24.58;;
35048;SDS011;21236;48.740;-3.446;2022-12-07T03:24:17;47.70;;;24.00;;
35048;SDS011;21236;48.740;-3.446;2022-12-07T03:26:59;45.13;;;23.00;;
35048;SDS011;21236;48.740;-3.446;2022-12-07T03:29:31;40.65;;;20.92;;
35048;SDS011;21236;48.740;-3.446;2022-12-07T03:32:05;49.42;;;22.65;;
35048;SDS011;21236;48.740;-3.446;2022-12-07T03:34:34;40.70;;;21.70;;
35048;SDS011;21236;48.740;-3.446;2022-12-07T03:37:07;42.65;;;22.55;;
35048;SDS011;21236;48.740;-3.446;2022-12-07T03:42:27;40.05;;;20.55;;
35048;SDS011;21236;48.740;-3.446;2022-12-07T03:44:53;40.58;;;20.80;;
35048;SDS011;21236;48.740;-3.446;2022-12-07T03:47:27;38.03;;;20.85;;
35048;SDS011;21236;48.740;-3.446;2022-12-07T03:49:59;41.00;;;20.33;;
35048;SDS011;21236;48.740;-3.446;2022-12-07T03:54:57;34.30;;;19.23;;
35048;SDS011;21236;48.740;-3.446;2022-12-07T03:57:25;40.45;;;20.98;;
35048;SDS011;21236;48.740;-3.446;2022-12-07T03:59:54;36.30;;;18.20;;
35048;SDS011;21236;48.740;-3.446;2022-12-07T04:02:21;35.33;;;19.40;;
35048;SDS011;21236;48.740;-3.446;2022-12-07T04:04:47;38.17;;;21.80;;
35048;SDS011;21236;48.740;-3.446;2022-12-07T04:07:13;36.28;;;19.60;;
35048;SDS011;21236;48.740;-3.446;2022-12-07T04:09:40;38.10;;;19.20;;
35048;SDS011;21236;48.740;-3.446;2022-12-07T04:12:06;43.28;;;20.95;;
35048;SDS011;21236;48.740;-3.446;2022-12-07T04:14:32;42.22;;;20.17;;
35048;SDS011;21236;48.740;-3.446;2022-12-07T04:16:58;39.85;;;19.73;;
35048;SDS011;21236;48.740;-3.446;2022-12-07T04:19:26;33.83;;;19.08;;
35048;SDS011;21236;48.740;-3.446;2022-12-07T04:21:53;37.17;;;19.85;;
35048;SDS011;21236;48.740;-3.446;2022-12-07T04:24:19;40.05;;;20.55;;
35048;SDS011;21236;48.740;-3.446;2022-12-07T04:26:45;40.90;;;20.52;;
35048;SDS011;21236;48.740;-3.446;2022-12-07T04:29:12;41.55;;;20.33;;
35048;SDS011;21236;48.740;-3.446;2022-12-07T04:31:38;37.45;;;20.70;;
35048;SDS011;21236;48.740;-3.446;2022-12-07T04:34:04;44.33;;;21.73;;
35048;SDS011;21236;48.740;-3.446;2022-12-07T04:36:31;38.10;;;20.42;;
35048;SDS011;21236;48.740;-3.446;2022-12-07T04:38:58;40.13;;;20.00;;
35048;SDS011;21236;48.740;-3.446;2022-12-07T04:41:24;34.53;;;19.20;;
35048;SDS011;21236;48.740;-3.446;2022-12-07T04:46:21;35.70;;;19.77;;
35048;SDS011;21236;48.740;-3.446;2022-12-07T04:48:47;36.85;;;19.65;;
35048;SDS011;21236;48.740;-3.446;2022-12-07T04:51:14;35.60;;;19.27;;
35048;SDS011;21236;48.740;-3.446;2022-12-07T04:53:41;40.97;;;20.02;;
35048;SDS011;21236;48.740;-3.446;2022-12-07T04:56:07;36.60;;;19.25;;
35048;SDS011;21236;48.740;-3.446;2022-12-07T04:58:33;40.85;;;19.90;;
35048;SDS011;21236;48.740;-3.446;2022-12-07T05:00:59;38.65;;;20.25;;
35048;SDS011;21236;48.740;-3.446;2022-12-07T05:03:25;41.08;;;20.90;;
35048;SDS011;21236;48.740;-3.446;2022-12-07T05:05:52;41.47;;;22.23;;
35048;SDS011;21236;48.740;-3.446;2022-12-07T05:08:18;34.95;;;18.88;;
35048;SDS011;21236;48.740;-3.446;2022-12-07T05:10:44;43.10;;;20.00;;
35048;SDS011;21236;48.740;-3.446;2022-12-07T05:13:10;40.03;;;20.42;;
35048;SDS011;21236;48.740;-3.446;2022-12-07T05:15:36;43.58;;;19.27;;
35048;SDS011;21236;48.740;-3.446;2022-12-07T05:18:02;41.03;;;21.58;;
35048;SDS011;21236;48.740;-3.446;2022-12-07T05:20:28;42.83;;;22.70;;
35048;SDS011;21236;48.740;-3.446;2022-12-07T05:22:54;39.10;;;20.08;;
35048;SDS011;21236;48.740;-3.446;2022-12-07T05:25:21;36.55;;;18.55;;
35048;SDS011;21236;48.740;-3.446;2022-12-07T05:27:47;42.47;;;22.02;;
35048;SDS011;21236;48.740;-3.446;2022-12-07T05:30:13;37.83;;;20.80;;
35048;SDS011;21236;48.740;-3.446;2022-12-07T05:32:39;40.08;;;22.35;;
35048;SDS011;21236;48.740;-3.446;2022-12-07T05:35:05;40.83;;;20.90;;
35048;SDS011;21236;48.740;-3.446;2022-12-07T05:37:32;44.00;;;19.80;;
35048;SDS011;21236;48.740;-3.446;2022-12-07T05:39:58;39.30;;;20.15;;
35048;SDS011;21236;48.740;-3.446;2022-12-07T05:42:24;38.47;;;19.23;;
35048;SDS011;21236;48.740;-3.446;2022-12-07T05:44:50;38.47;;;19.50;;
35048;SDS011;21236;48.740;-3.446;2022-12-07T05:47:16;38.08;;;19.85;;
35048;SDS011;21236;48.740;-3.446;2022-12-07T05:49:42;41.10;;;19.90;;
35048;SDS011;21236;48.740;-3.446;2022-12-07T05:52:08;38.88;;;19.55;;
35048;SDS011;21236;48.740;-3.446;2022-12-07T05:54:35;38.20;;;19.70;;
35048;SDS011;21236;48.740;-3.446;2022-12-07T05:57:01;43.00;;;20.20;;
35048;SDS011;21236;48.740;-3.446;2022-12-07T05:59:27;35.88;;;18.75;;
35048;SDS011;21236;48.740;-3.446;2022-12-07T06:01:58;36.97;;;19.13;;
35048;SDS011;21236;48.740;-3.446;2022-12-07T06:04:25;36.85;;;19.45;;
35048;SDS011;21236;48.740;-3.446;2022-12-07T06:06:51;41.67;;;20.95;;
35048;SDS011;21236;48.740;-3.446;2022-12-07T06:09:18;40.17;;;18.40;;
35048;SDS011;21236;48.740;-3.446;2022-12-07T06:11:45;35.72;;;19.08;;
35048;SDS011;21236;48.740;-3.446;2022-12-07T06:14:29;33.38;;;18.77;;
35048;SDS011;21236;48.740;-3.446;2022-12-07T06:16:56;35.53;;;19.58;;
35048;SDS011;21236;48.740;-3.446;2022-12-07T06:19:22;44.53;;;22.65;;
35048;SDS011;21236;48.740;-3.446;2022-12-07T06:21:48;41.72;;;20.27;;
35048;SDS011;21236;48.740;-3.446;2022-12-07T06:24:14;42.20;;;21.00;;
35048;SDS011;21236;48.740;-3.446;2022-12-07T06:26:41;39.05;;;20.10;;
35048;SDS011;21236;48.740;-3.446;2022-12-07T06:29:07;42.63;;;21.58;;
35048;SDS011;21236;48.740;-3.446;2022-12-07T06:31:34;44.03;;;23.80;;
35048;SDS011;21236;48.740;-3.446;2022-12-07T06:34:02;41.92;;;22.70;;
35048;SDS011;21236;48.740;-3.446;2022-12-07T06:36:28;44.10;;;23.17;;
35048;SDS011;21236;48.740;-3.446;2022-12-07T06:38:54;44.40;;;23.30;;
35048;SDS011;21236;48.740;-3.446;2022-12-07T06:41:21;42.50;;;20.92;;
35048;SDS011;21236;48.740;-3.446;2022-12-07T06:43:47;39.22;;;20.60;;
35048;SDS011;21236;48.740;-3.446;2022-12-07T06:46:13;35.92;;;19.88;;
35048;SDS011;21236;48.740;-3.446;2022-12-07T06:48:40;34.05;;;19.48;;
35048;SDS011;21236;48.740;-3.446;2022-12-07T06:51:07;41.40;;;21.05;;
35048;SDS011;21236;48.740;-3.446;2022-12-07T06:53:33;44.47;;;23.05;;
35048;SDS011;21236;48.740;-3.446;2022-12-07T06:55:59;42.90;;;22.75;;
35048;SDS011;21236;48.740;-3.446;2022-12-07T06:58:25;45.80;;;24.05;;
35048;SDS011;21236;48.740;-3.446;2022-12-07T07:00:51;45.53;;;23.67;;
35048;SDS011;21236;48.740;-3.446;2022-12-07T07:03:17;46.33;;;24.35;;
35048;SDS011;21236;48.740;-3.446;2022-12-07T07:05:44;44.65;;;23.80;;
35048;SDS011;21236;48.740;-3.446;2022-12-07T07:08:10;44.88;;;24.05;;
35048;SDS011;21236;48.740;-3.446;2022-12-07T07:10:36;49.15;;;25.95;;
35048;SDS011;21236;48.740;-3.446;2022-12-07T07:13:03;49.22;;;23.17;;
35048;SDS011;21236;48.740;-3.446;2022-12-07T07:15:29;49.25;;;24.52;;
35048;SDS011;21236;48.740;-3.446;2022-12-07T07:17:55;43.35;;;24.15;;
35048;SDS011;21236;48.740;-3.446;2022-12-07T07:20:21;47.22;;;25.10;;
35048;SDS011;21236;48.740;-3.446;2022-12-07T07:22:48;48.55;;;24.92;;
35048;SDS011;21236;48.740;-3.446;2022-12-07T07:25:14;51.42;;;26.63;;
35048;SDS011;21236;48.740;-3.446;2022-12-07T07:27:41;52.88;;;24.65;;
35048;SDS011;21236;48.740;-3.446;2022-12-07T07:30:07;42.47;;;22.75;;
35048;SDS011;21236;48.740;-3.446;2022-12-07T07:32:33;54.67;;;26.30;;
35048;SDS011;21236;48.740;-3.446;2022-12-07T07:35:00;98.90;;;38.05;;
35048;SDS011;21236;48.740;-3.446;2022-12-07T07:37:26;97.80;;;41.20;;
35048;SDS011;21236;48.740;-3.446;2022-12-07T07:39:52;111.13;;;44.28;;
35048;SDS011;21236;48.740;-3.446;2022-12-07T07:42:18;110.57;;;44.20;;
35048;SDS011;21236;48.740;-3.446;2022-12-07T07:44:45;107.78;;;45.58;;
35048;SDS011;21236;48.740;-3.446;2022-12-07T07:47:11;96.65;;;39.08;;
35048;SDS011;21236;48.740;-3.446;2022-12-07T07:49:37;89.30;;;35.65;;
35048;SDS011;21236;48.740;-3.446;2022-12-07T07:52:04;78.13;;;33.55;;
35048;SDS011;21236;48.740;-3.446;2022-12-07T07:54:31;56.88;;;27.02;;
35048;SDS011;21236;48.740;-3.446;2022-12-07T07:56:57;48.95;;;24.10;;
35048;SDS011;21236;48.740;-3.446;2022-12-07T07:59:23;52.13;;;26.60;;
35048;SDS011;21236;48.740;-3.446;2022-12-07T08:01:50;55.33;;;25.95;;
35048;SDS011;21236;48.740;-3.446;2022-12-07T08:04:16;49.67;;;24.98;;
35048;SDS011;21236;48.740;-3.446;2022-12-07T08:06:42;46.17;;;24.02;;
35048;SDS011;21236;48.740;-3.446;2022-12-07T08:09:08;50.25;;;23.17;;
35048;SDS011;21236;48.740;-3.446;2022-12-07T08:11:35;43.72;;;22.45;;
35048;SDS011;21236;48.740;-3.446;2022-12-07T08:14:02;47.33;;;22.35;;
35048;SDS011;21236;48.740;-3.446;2022-12-07T08:16:28;47.40;;;23.20;;
35048;SDS011;21236;48.740;-3.446;2022-12-07T08:18:54;44.20;;;22.77;;
35048;SDS011;21236;48.740;-3.446;2022-12-07T08:21:21;49.42;;;23.05;;
35048;SDS011;21236;48.740;-3.446;2022-12-07T08:23:47;41.90;;;22.17;;
35048;SDS011;21236;48.740;-3.446;2022-12-07T08:26:14;53.53;;;25.65;;
35048;SDS011;21236;48.740;-3.446;2022-12-07T08:28:40;47.20;;;24.83;;
35048;SDS011;21236;48.740;-3.446;2022-12-07T08:31:08;54.10;;;25.13;;
35048;SDS011;21236;48.740;-3.446;2022-12-07T08:33:36;41.53;;;22.33;;
35048;SDS011;21236;48.740;-3.446;2022-12-07T08:36:06;43.58;;;22.83;;
35048;SDS011;21236;48.740;-3.446;2022-12-07T08:38:36;41.70;;;22.13;;
35048;SDS011;21236;48.740;-3.446;2022-12-07T08:41:03;44.75;;;23.33;;
35048;SDS011;21236;48.740;-3.446;2022-12-07T08:43:29;43.80;;;22.77;;
35048;SDS011;21236;48.740;-3.446;2022-12-07T08:46:30;49.10;;;25.63;;
35048;SDS011;21236;48.740;-3.446;2022-12-07T08:48:49;48.17;;;24.13;;
35048;SDS011;21236;48.740;-3.446;2022-12-07T08:51:17;45.70;;;23.50;;
35048;SDS011;21236;48.740;-3.446;2022-12-07T08:53:44;48.78;;;24.10;;
35048;SDS011;21236;48.740;-3.446;2022-12-07T08:56:10;70.50;;;32.53;;
35048;SDS011;21236;48.740;-3.446;2022-12-07T08:58:36;54.58;;;29.85;;
35048;SDS011;21236;48.740;-3.446;2022-12-07T09:01:04;56.28;;;28.33;;
35048;SDS011;21236;48.740;-3.446;2022-12-07T09:03:30;49.65;;;24.25;;
35048;SDS011;21236;48.740;-3.446;2022-12-07T09:05:57;43.30;;;23.35;;
35048;SDS011;21236;48.740;-3.446;2022-12-07T09:08:23;55.42;;;25.13;;
35048;SDS011;21236;48.740;-3.446;2022-12-07T09:10:52;61.22;;;29.23;;
35048;SDS011;21236;48.740;-3.446;2022-12-07T09:13:18;54.30;;;27.10;;
35048;SDS011;21236;48.740;-3.446;2022-12-07T09:15:44;58.17;;;28.17;;
35048;SDS011;21236;48.740;-3.446;2022-12-07T09:18:10;51.85;;;25.50;;
35048;SDS011;21236;48.740;-3.446;2022-12-07T09:20:36;54.20;;;25.70;;
35048;SDS011;21236;48.740;-3.446;2022-12-07T09:23:02;45.78;;;24.10;;
35048;SDS011;21236;48.740;-3.446;2022-12-07T09:25:31;50.55;;;25.00;;
35048;SDS011;21236;48.740;-3.446;2022-12-07T09:27:57;46.58;;;25.55;;
35048;SDS011;21236;48.740;-3.446;2022-12-07T09:30:24;49.38;;;26.30;;
35048;SDS011;21236;48.740;-3.446;2022-12-07T09:32:50;53.03;;;26.48;;
35048;SDS011;21236;48.740;-3.446;2022-12-07T09:35:16;53.33;;;26.75;;
35048;SDS011;21236;48.740;-3.446;2022-12-07T09:37:42;52.13;;;26.10;;
35048;SDS011;21236;48.740;-3.446;2022-12-07T09:40:08;50.88;;;25.33;;
35048;SDS011;21236;48.740;-3.446;2022-12-07T09:42:36;56.90;;;26.38;;
35048;SDS011;21236;48.740;-3.446;2022-12-07T09:45:05;48.30;;;23.85;;
35048;SDS011;21236;48.740;-3.446;2022-12-07T09:47:31;46.30;;;23.95;;
35048;SDS011;21236;48.740;-3.446;2022-12-07T09:50:06;52.08;;;25.42;;
35048;SDS011;21236;48.740;-3.446;2022-12-07T09:52:33;53.80;;;25.10;;
35048;SDS011;21236;48.740;-3.446;2022-12-07T09:54:59;52.42;;;27.70;;
35048;SDS011;21236;48.740;-3.446;2022-12-07T09:57:30;51.83;;;26.15;;
35048;SDS011;21236;48.740;-3.446;2022-12-07T09:59:59;49.42;;;24.15;;
35048;SDS011;21236;48.740;-3.446;2022-12-07T10:02:36;48.83;;;22.90;;
35048;SDS011;21236;48.740;-3.446;2022-12-07T10:05:04;42.28;;;20.77;;
35048;SDS011;21236;48.740;-3.446;2022-12-07T10:07:31;44.40;;;22.35;;
35048;SDS011;21236;48.740;-3.446;2022-12-07T10:09:57;43.13;;;23.58;;
35048;SDS011;21236;48.740;-3.446;2022-12-07T10:12:23;52.13;;;23.50;;
35048;SDS011;21236;48.740;-3.446;2022-12-07T10:14:59;41.90;;;22.88;;
35048;SDS011;21236;48.740;-3.446;2022-12-07T10:17:28;47.83;;;23.73;;
35048;SDS011;21236;48.740;-3.446;2022-12-07T10:20:10;47.03;;;23.58;;
35048;SDS011;21236;48.740;-3.446;2022-12-07T10:22:38;38.03;;;21.15;;
35048;SDS011;21236;48.740;-3.446;2022-12-07T10:25:08;38.22;;;21.52;;
35048;SDS011;21236;48.740;-3.446;2022-12-07T10:27:35;42.58;;;23.00;;
35048;SDS011;21236;48.740;-3.446;2022-12-07T10:30:01;43.05;;;22.15;;
35048;SDS011;21236;48.740;-3.446;2022-12-07T10:32:34;41.55;;;23.20;;
35048;SDS011;21236;48.740;-3.446;2022-12-07T10:37:45;40.58;;;21.67;;
35048;SDS011;21236;48.740;-3.446;2022-12-07T10:40:53;40.75;;;21.60;;
35048;SDS011;21236;48.740;-3.446;2022-12-07T10:46:18;41.90;;;22.48;;
35048;SDS011;21236;48.740;-3.446;2022-12-07T10:56:16;49.88;;;26.10;;
35048;SDS011;21236;48.740;-3.446;2022-12-07T11:14:03;42.83;;;21.35;;
35048;SDS011;21236;48.740;-3.446;2022-12-07T11:19:11;33.95;;;18.25;;
35048;SDS011;21236;48.740;-3.446;2022-12-07T11:21:44;38.13;;;19.92;;
35048;SDS011;21236;48.740;-3.446;2022-12-07T11:24:15;37.33;;;21.25;;
35048;SDS011;21236;48.740;-3.446;2022-12-07T11:34:04;37.70;;;19.08;;
35048;SDS011;21236;48.740;-3.446;2022-12-07T11:36:36;35.13;;;19.23;;
35048;SDS011;21236;48.740;-3.446;2022-12-07T11:39:04;35.42;;;19.15;;
35048;SDS011;21236;48.740;-3.446;2022-12-07T11:41:37;36.83;;;20.60;;
35048;SDS011;21236;48.740;-3.446;2022-12-07T11:44:06;36.35;;;19.50;;
35048;SDS011;21236;48.740;-3.446;2022-12-07T11:46:49;36.25;;;18.60;;
35048;SDS011;21236;48.740;-3.446;2022-12-07T11:51:53;34.17;;;17.55;;
35048;SDS011;21236;48.740;-3.446;2022-12-07T11:54:25;34.05;;;18.70;;
35048;SDS011;21236;48.740;-3.446;2022-12-07T11:56:53;32.83;;;19.77;;
35048;SDS011;21236;48.740;-3.446;2022-12-07T12:01:55;32.10;;;18.58;;
35048;SDS011;21236;48.740;-3.446;2022-12-07T12:04:25;35.10;;;19.33;;
35048;SDS011;21236;48.740;-3.446;2022-12-07T12:06:53;33.22;;;18.23;;
35048;SDS011;21236;48.740;-3.446;2022-12-07T12:22:54;33.83;;;16.88;;
35048;SDS011;21236;48.740;-3.446;2022-12-07T12:25:23;31.33;;;17.25;;
35048;SDS011;21236;48.740;-3.446;2022-12-07T12:27:50;26.83;;;16.67;;
35048;SDS011;21236;48.740;-3.446;2022-12-07T12:30:34;24.60;;;14.07;;
35048;SDS011;21236;48.740;-3.446;2022-12-07T12:33:02;25.92;;;14.30;;
35048;SDS011;21236;48.740;-3.446;2022-12-07T12:35:30;23.98;;;13.18;;
35048;SDS011;21236;48.740;-3.446;2022-12-07T12:40:42;24.80;;;14.55;;
35048;SDS011;21236;48.740;-3.446;2022-12-07T12:46:35;27.85;;;13.15;;
35048;SDS011;21236;48.740;-3.446;2022-12-07T12:48:39;28.83;;;14.77;;
35048;SDS011;21236;48.740;-3.446;2022-12-07T12:54:04;21.50;;;13.85;;
35048;SDS011;21236;48.740;-3.446;2022-12-07T12:56:48;21.50;;;13.90;;
35048;SDS011;21236;48.740;-3.446;2022-12-07T12:59:25;23.25;;;13.70;;
35048;SDS011;21236;48.740;-3.446;2022-12-07T13:01:53;23.45;;;13.27;;
35048;SDS011;21236;48.740;-3.446;2022-12-07T13:06:46;22.27;;;11.55;;
35048;SDS011;21236;48.740;-3.446;2022-12-07T13:12:14;15.90;;;8.55;;
35048;SDS011;21236;48.740;-3.446;2022-12-07T13:14:43;16.17;;;9.38;;
35048;SDS011;21236;48.740;-3.446;2022-12-07T13:22:52;18.75;;;11.80;;
35048;SDS011;21236;48.740;-3.446;2022-12-07T13:24:55;22.42;;;11.85;;
35048;SDS011;21236;48.740;-3.446;2022-12-07T13:27:21;19.45;;;11.77;;
35048;SDS011;21236;48.740;-3.446;2022-12-07T13:29:48;19.52;;;11.00;;
35048;SDS011;21236;48.740;-3.446;2022-12-07T13:32:22;21.45;;;10.63;;
35048;SDS011;21236;48.740;-3.446;2022-12-07T13:34:49;22.63;;;10.73;;
35048;SDS011;21236;48.740;-3.446;2022-12-07T13:39:52;22.77;;;12.20;;
35048;SDS011;21236;48.740;-3.446;2022-12-07T13:42:24;17.70;;;9.15;;
35048;SDS011;21236;48.740;-3.446;2022-12-07T13:44:51;15.27;;;9.55;;
35048;SDS011;21236;48.740;-3.446;2022-12-07T13:49:54;15.90;;;8.35;;
35048;SDS011;21236;48.740;-3.446;2022-12-07T13:52:24;14.75;;;8.95;;
35048;SDS011;21236;48.740;-3.446;2022-12-07T13:55:01;13.88;;;8.90;;
35048;SDS011;21236;48.740;-3.446;2022-12-07T13:57:28;13.77;;;8.15;;
35048;SDS011;21236;48.740;-3.446;2022-12-07T13:59:55;16.75;;;9.15;;
35048;SDS011;21236;48.740;-3.446;2022-12-07T14:04:49;14.80;;;8.75;;
35048;SDS011;21236;48.740;-3.446;2022-12-07T14:07:23;16.92;;;9.30;;
35048;SDS011;21236;48.740;-3.446;2022-12-07T14:09:53;16.58;;;10.20;;
35048;SDS011;21236;48.740;-3.446;2022-12-07T14:12:20;15.32;;;9.48;;
35048;SDS011;21236;48.740;-3.446;2022-12-07T14:14:46;15.23;;;8.15;;
35048;SDS011;21236;48.740;-3.446;2022-12-07T14:17:17;12.52;;;7.35;;
35048;SDS011;21236;48.740;-3.446;2022-12-07T14:19:51;15.13;;;8.30;;
35048;SDS011;21236;48.740;-3.446;2022-12-07T14:22:28;16.85;;;8.32;;
35048;SDS011;21236;48.740;-3.446;2022-12-07T14:24:58;13.18;;;7.90;;
35048;SDS011;21236;48.740;-3.446;2022-12-07T14:27:24;12.93;;;8.18;;
35048;SDS011;21236;48.740;-3.446;2022-12-07T14:29:55;12.50;;;7.75;;
35048;SDS011;21236;48.740;-3.446;2022-12-07T14:32:26;16.90;;;8.52;;
35048;SDS011;21236;48.740;-3.446;2022-12-07T14:35:10;14.75;;;8.05;;
35048;SDS011;21236;48.740;-3.446;2022-12-07T14:40:03;18.48;;;10.50;;
35048;SDS011;21236;48.740;-3.446;2022-12-07T14:42:29;20.08;;;11.65;;
35048;SDS011;21236;48.740;-3.446;2022-12-07T14:44:56;26.30;;;15.93;;
35048;SDS011;21236;48.740;-3.446;2022-12-07T14:47:23;31.80;;;16.95;;
35048;SDS011;21236;48.740;-3.446;2022-12-07T14:49:49;28.73;;;17.48;;
35048;SDS011;21236;48.740;-3.446;2022-12-07T14:52:17;30.05;;;17.02;;
35048;SDS011;21236;48.740;-3.446;2022-12-07T14:54:44;27.98;;;15.77;;
35048;SDS011;21236;48.740;-3.446;2022-12-07T14:57:10;27.23;;;13.13;;
35048;SDS011;21236;48.740;-3.446;2022-12-07T14:59:36;22.25;;;12.48;;
35048;SDS011;21236;48.740;-3.446;2022-12-07T15:02:03;22.30;;;12.10;;
35048;SDS011;21236;48.740;-3.446;2022-12-07T15:04:29;25.33;;;12.35;;
35048;SDS011;21236;48.740;-3.446;2022-12-07T15:07:00;21.67;;;11.35;;
35048;SDS011;21236;48.740;-3.446;2022-12-07T15:09:26;22.92;;;12.77;;
35048;SDS011;21236;48.740;-3.446;2022-12-07T15:11:52;23.05;;;12.27;;
35048;SDS011;21236;48.740;-3.446;2022-12-07T15:14:18;22.30;;;12.52;;
35048;SDS011;21236;48.740;-3.446;2022-12-07T15:16:44;21.38;;;11.95;;
35048;SDS011;21236;48.740;-3.446;2022-12-07T15:19:12;28.92;;;13.73;;
35048;SDS011;21236;48.740;-3.446;2022-12-07T15:21:39;30.02;;;15.57;;
35048;SDS011;21236;48.740;-3.446;2022-12-07T15:24:05;29.20;;;15.23;;
35048;SDS011;21236;48.740;-3.446;2022-12-07T15:26:31;20.92;;;12.02;;
35048;SDS011;21236;48.740;-3.446;2022-12-07T15:28:57;24.05;;;12.25;;
35048;SDS011;21236;48.740;-3.446;2022-12-07T15:31:24;26.20;;;13.50;;
35048;SDS011;21236;48.740;-3.446;2022-12-07T15:33:50;25.10;;;12.25;;
35048;SDS011;21236;48.740;-3.446;2022-12-07T15:36:20;20.92;;;11.48;;
35048;SDS011;21236;48.740;-3.446;2022-12-07T15:38:46;19.38;;;11.07;;
35048;SDS011;21236;48.740;-3.446;2022-12-07T15:41:12;19.83;;;10.85;;
35048;SDS011;21236;48.740;-3.446;2022-12-07T15:43:39;22.38;;;10.18;;
35048;SDS011;21236;48.740;-3.446;2022-12-07T15:46:28;14.50;;;7.47;;
35048;SDS011;21236;48.740;-3.446;2022-12-07T15:48:54;4.85;;;3.05;;
35048;SDS011;21236;48.740;-3.446;2022-12-07T15:51:20;6.07;;;2.42;;
35048;SDS011;21236;48.740;-3.446;2022-12-07T15:53:46;3.20;;;1.65;;
35048;SDS011;21236;48.740;-3.446;2022-12-07T15:56:12;4.80;;;2.90;;
35048;SDS011;21236;48.740;-3.446;2022-12-07T15:58:39;5.55;;;1.77;;
35048;SDS011;21236;48.740;-3.446;2022-12-07T16:01:11;7.30;;;2.40;;
35048;SDS011;21236;48.740;-3.446;2022-12-07T16:03:38;4.95;;;2.55;;
35048;SDS011;21236;48.740;-3.446;2022-12-07T16:06:04;5.75;;;2.45;;
35048;SDS011;21236;48.740;-3.446;2022-12-07T16:08:30;6.60;;;3.35;;
35048;SDS011;21236;48.740;-3.446;2022-12-07T16:10:57;6.70;;;3.50;;
35048;SDS011;21236;48.740;-3.446;2022-12-07T16:13:23;8.45;;;4.43;;
35048;SDS011;21236;48.740;-3.446;2022-12-07T16:15:49;9.27;;;4.32;;
35048;SDS011;21236;48.740;-3.446;2022-12-07T16:18:16;6.82;;;4.32;;